createdAt,value
2023-02-27T00:01:28.899Z,59.45
2023-02-27T00:03:57.870Z,60.70
2023-02-27T00:06:24.493Z,59.63
2023-02-27T00:08:53.387Z,48.50
2023-02-27T00:11:20.356Z,48.67
2023-02-27T00:13:51.215Z,42.58
2023-02-27T00:16:18.027Z,55.30
2023-02-27T00:18:44.695Z,50.55
2023-02-27T00:21:11.437Z,46.08
2023-02-27T00:23:38.357Z,45.10
2023-02-27T00:26:05.422Z,50.45
2023-02-27T00:28:35.170Z,44.15
2023-02-27T00:31:01.965Z,50.67
2023-02-27T00:33:30.457Z,51.47
2023-02-27T00:35:59.374Z,48.10
2023-02-27T00:38:26.465Z,63.00
2023-02-27T00:40:57.615Z,50.60
2023-02-27T00:43:24.480Z,57.80
2023-02-27T00:45:51.028Z,46.88
2023-02-27T00:48:20.817Z,48.55
2023-02-27T00:50:47.622Z,55.72
2023-02-27T00:53:14.273Z,48.13
2023-02-27T00:55:40.907Z,45.75
2023-02-27T00:58:07.633Z,43.40
2023-02-27T01:00:34.341Z,56.72
2023-02-27T01:03:03.954Z,50.00
2023-02-27T01:05:31.065Z,58.38
2023-02-27T01:08:00.042Z,63.30
2023-02-27T01:10:29.164Z,59.55
2023-02-27T01:12:55.819Z,53.38
2023-02-27T01:15:24.812Z,50.45
2023-02-27T01:17:51.596Z,62.58
2023-02-27T01:20:20.769Z,56.47
2023-02-27T01:22:47.461Z,51.80
2023-02-27T01:25:14.131Z,49.60
2023-02-27T01:27:41.302Z,52.47
2023-02-27T01:30:11.335Z,53.40
2023-02-27T01:32:38.348Z,45.30
2023-02-27T01:35:05.461Z,50.15
2023-02-27T01:37:34.523Z,40.53
2023-02-27T01:40:01.145Z,56.05
2023-02-27T01:42:33.780Z,53.42
2023-02-27T01:45:12.956Z,49.60
2023-02-27T01:47:48.003Z,51.30
2023-02-27T01:50:16.043Z,54.92
2023-02-27T01:52:49.373Z,41.25
2023-02-27T01:55:16.457Z,47.67
2023-02-27T01:57:46.470Z,47.10
2023-02-27T02:00:14.495Z,58.95
2023-02-27T02:02:56.580Z,55.38
2023-02-27T02:05:24.053Z,60.03
2023-02-27T02:07:54.302Z,72.07
2023-02-27T02:10:22.434Z,71.60
2023-02-27T02:12:49.970Z,71.00
2023-02-27T02:15:17.246Z,66.18
2023-02-27T02:17:53.333Z,81.43
2023-02-27T02:20:39.661Z,68.72
2023-02-27T02:23:31.819Z,68.18
2023-02-27T02:26:52.407Z,60.85
2023-02-27T02:29:59.743Z,60.28
2023-02-27T02:33:07.618Z,62.38
2023-02-27T02:36:01.266Z,66.97
2023-02-27T02:39:09.283Z,64.30
2023-02-27T02:41:58.940Z,65.10
2023-02-27T02:45:02.195Z,64.10
2023-02-27T02:47:47.545Z,68.93
2023-02-27T02:50:36.571Z,72.70
2023-02-27T02:53:58.324Z,67.00
2023-02-27T02:56:55.579Z,62.97
2023-02-27T02:59:33.712Z,71.38
2023-02-27T03:02:08.511Z,61.08
2023-02-27T03:04:44.178Z,54.92
2023-02-27T03:07:23.998Z,51.67
2023-02-27T03:10:00.110Z,52.25
2023-02-27T03:12:32.790Z,58.85
2023-02-27T03:15:20.133Z,48.58
2023-02-27T03:17:53.388Z,55.00
2023-02-27T03:20:33.638Z,51.72
2023-02-27T03:23:07.162Z,46.53
2023-02-27T03:25:41.509Z,53.07
2023-02-27T03:28:11.355Z,46.65
2023-02-27T03:30:50.590Z,47.20
2023-02-27T03:33:35.982Z,41.13
2023-02-27T03:36:14.954Z,42.53
2023-02-27T03:39:24.190Z,43.45
2023-02-27T03:42:16.707Z,43.42
2023-02-27T03:45:06.101Z,44.45
2023-02-27T03:47:36.058Z,37.13
2023-02-27T03:50:02.776Z,47.45
2023-02-27T03:52:30.214Z,47.92
2023-02-27T03:55:02.021Z,36.83
2023-02-27T03:57:29.311Z,48.25
2023-02-27T03:59:59.253Z,34.40
2023-02-27T04:02:28.046Z,33.40
2023-02-27T04:04:57.803Z,34.67
2023-02-27T04:07:41.899Z,34.30
2023-02-27T04:10:14.624Z,28.48
2023-02-27T04:12:57.929Z,32.00
2023-02-27T04:15:55.611Z,29.92
2023-02-27T04:18:36.374Z,28.92
2023-02-27T04:21:33.712Z,29.58
2023-02-27T04:24:17.682Z,29.15
2023-02-27T04:26:51.735Z,30.60
2023-02-27T04:29:27.990Z,32.10
2023-02-27T04:32:07.071Z,25.98
2023-02-27T04:34:44.030Z,25.55
2023-02-27T04:37:20.220Z,25.88
2023-02-27T04:39:57.952Z,30.73
2023-02-27T04:42:33.933Z,24.23
2023-02-27T04:45:04.833Z,29.35
2023-02-27T04:47:39.770Z,23.05
2023-02-27T04:50:17.163Z,18.10
2023-02-27T04:52:50.269Z,19.85
2023-02-27T04:55:39.129Z,25.65
2023-02-27T04:58:12.740Z,17.13
2023-02-27T05:00:52.473Z,21.88
2023-02-27T05:03:25.428Z,44.05
2023-02-27T05:05:56.964Z,20.50
2023-02-27T05:08:51.354Z,18.67
2023-02-27T05:11:37.170Z,16.67
2023-02-27T05:14:31.012Z,15.77
2023-02-27T05:17:14.901Z,17.55
2023-02-27T05:19:57.585Z,19.07
2023-02-27T05:22:43.171Z,16.38
2023-02-27T05:25:26.646Z,17.30
2023-02-27T05:28:06.479Z,21.58
2023-02-27T05:31:19.090Z,15.38
2023-02-27T05:33:55.722Z,19.45
2023-02-27T05:36:28.744Z,14.63
2023-02-27T05:39:09.025Z,19.00
2023-02-27T05:41:47.949Z,17.77
2023-02-27T05:44:21.899Z,20.77
2023-02-27T05:46:59.730Z,15.93
2023-02-27T05:49:43.719Z,18.92
2023-02-27T05:52:15.240Z,26.55
2023-02-27T05:54:51.838Z,17.98
2023-02-27T05:57:27.183Z,22.80
2023-02-27T06:00:13.854Z,24.02
2023-02-27T06:02:42.494Z,22.15
2023-02-27T06:05:09.520Z,34.92
2023-02-27T06:07:36.876Z,20.88
2023-02-27T06:10:06.415Z,16.58
2023-02-27T06:12:34.911Z,19.63
2023-02-27T06:15:04.156Z,19.73
2023-02-27T06:17:36.207Z,15.45
2023-02-27T06:20:03.452Z,14.05
2023-02-27T06:22:56.347Z,18.20
2023-02-27T06:25:37.479Z,19.73
2023-02-27T06:28:14.774Z,19.70
2023-02-27T06:30:46.587Z,17.65
2023-02-27T06:33:13.614Z,30.30
2023-02-27T06:35:40.262Z,21.77
2023-02-27T06:38:07.148Z,20.08
2023-02-27T06:40:39.346Z,24.73
2023-02-27T06:43:09.400Z,22.33
2023-02-27T06:45:38.306Z,31.17
2023-02-27T06:48:08.132Z,22.15
2023-02-27T06:50:34.901Z,25.52
2023-02-27T06:53:01.490Z,31.60
2023-02-27T06:55:30.057Z,24.13
2023-02-27T06:57:56.817Z,24.52
2023-02-27T07:00:32.243Z,22.23
2023-02-27T07:02:59.017Z,21.92
2023-02-27T07:05:28.645Z,14.18
2023-02-27T07:07:58.722Z,13.50
2023-02-27T07:10:28.407Z,15.63
2023-02-27T07:13:00.797Z,18.45
2023-02-27T07:15:32.370Z,24.35
2023-02-27T07:18:01.651Z,15.70
2023-02-27T07:20:31.447Z,14.20
2023-02-27T07:22:58.541Z,14.77
2023-02-27T07:25:25.372Z,35.20
2023-02-27T07:28:01.948Z,22.25
2023-02-27T07:30:41.785Z,18.92
2023-02-27T07:33:14.731Z,17.90
2023-02-27T07:35:41.560Z,21.55
2023-02-27T07:38:13.924Z,28.98
2023-02-27T07:40:42.714Z,22.77
2023-02-27T07:43:12.680Z,24.65
2023-02-27T07:45:41.202Z,26.63
2023-02-27T07:48:07.929Z,29.38
2023-02-27T07:50:40.660Z,34.38
2023-02-27T07:53:08.075Z,27.92
2023-02-27T07:55:35.862Z,26.02
2023-02-27T07:58:05.328Z,30.67
2023-02-27T08:00:32.561Z,29.83
2023-02-27T08:03:00.769Z,35.85
2023-02-27T08:05:30.660Z,31.05
2023-02-27T08:08:04.178Z,32.00
2023-02-27T08:10:31.369Z,34.90
2023-02-27T08:13:07.395Z,34.88
2023-02-27T08:15:34.179Z,29.40
2023-02-27T08:18:03.916Z,58.30
2023-02-27T08:20:31.801Z,45.90
2023-02-27T08:22:58.751Z,28.52
2023-02-27T08:25:25.453Z,32.50
2023-02-27T08:27:52.454Z,21.35
2023-02-27T08:30:19.303Z,23.52
2023-02-27T08:32:46.762Z,40.22
2023-02-27T08:35:13.830Z,21.98
2023-02-27T08:37:40.719Z,18.65
2023-02-27T08:40:09.329Z,19.25
2023-02-27T08:42:38.600Z,21.88
2023-02-27T08:45:05.629Z,26.83
2023-02-27T08:47:37.230Z,25.58
2023-02-27T08:50:07.657Z,25.52
2023-02-27T08:52:37.040Z,20.42
2023-02-27T08:58:13.040Z,22.08
2023-02-27T09:00:44.812Z,30.27
2023-02-27T09:03:13.979Z,29.10
2023-02-27T09:05:43.100Z,21.30
2023-02-27T09:08:10.344Z,20.83
2023-02-27T09:10:37.297Z,18.17
2023-02-27T09:13:10.383Z,23.45
2023-02-27T09:15:42.968Z,20.53
2023-02-27T09:18:12.967Z,16.75
2023-02-27T09:20:42.116Z,20.38
2023-02-27T09:23:09.279Z,17.67
2023-02-27T09:25:36.167Z,26.27
2023-02-27T09:28:03.368Z,29.80
2023-02-27T09:30:31.946Z,24.73
2023-02-27T09:33:00.674Z,21.17
2023-02-27T09:35:27.515Z,30.02
2023-02-27T09:37:56.678Z,19.08
2023-02-27T09:40:32.737Z,27.35
2023-02-27T09:43:11.772Z,22.10
2023-02-27T09:45:42.553Z,27.60
2023-02-27T09:48:42.998Z,24.48
2023-02-27T09:51:10.441Z,37.50
2023-02-27T09:53:43.092Z,17.98
2023-02-27T09:56:51.338Z,19.35
2023-02-27T09:59:46.748Z,14.18
2023-02-27T10:06:18.788Z,22.02
2023-02-27T10:09:06.936Z,15.02
2023-02-27T10:11:43.053Z,13.65
2023-02-27T10:15:18.447Z,13.10
2023-02-27T10:17:51.283Z,18.17
2023-02-27T10:20:26.444Z,14.27
2023-02-27T10:22:56.786Z,10.75
2023-02-27T10:25:31.781Z,10.13
2023-02-27T10:28:11.143Z,14.68
2023-02-27T10:30:38.062Z,11.70
2023-02-27T10:33:16.515Z,14.77
2023-02-27T10:35:46.929Z,16.42
2023-02-27T10:38:27.119Z,13.43
2023-02-27T10:40:56.903Z,12.20
2023-02-27T10:43:23.851Z,13.82
2023-02-27T10:45:52.724Z,13.20
2023-02-27T10:48:20.470Z,16.35
2023-02-27T10:50:52.344Z,20.50
2023-02-27T10:53:26.573Z,19.95
2023-02-27T10:56:05.529Z,18.80
2023-02-27T10:58:38.353Z,18.80
2023-02-27T11:01:13.190Z,17.35
2023-02-27T11:03:46.525Z,15.43
2023-02-27T11:06:26.651Z,13.85
2023-02-27T11:09:22.393Z,16.58
2023-02-27T11:11:50.794Z,15.70
2023-02-27T11:14:34.657Z,21.33
2023-02-27T11:17:22.649Z,14.33
2023-02-27T11:19:51.863Z,17.92
2023-02-27T11:22:25.103Z,11.98
2023-02-27T11:24:55.870Z,9.20
2023-02-27T11:27:29.466Z,12.40
2023-02-27T11:30:00.637Z,11.17
2023-02-27T11:32:51.457Z,15.15
2023-02-27T11:35:21.529Z,14.77
2023-02-27T11:37:52.978Z,22.52
2023-02-27T11:40:53.974Z,21.58
2023-02-27T11:43:34.403Z,13.98
2023-02-27T11:46:44.839Z,18.45
2023-02-27T11:49:40.086Z,17.20
2023-02-27T11:52:18.661Z,21.63
2023-02-27T11:54:59.994Z,15.77
2023-02-27T11:57:42.514Z,17.75
2023-02-27T12:01:00.404Z,10.02
2023-02-27T12:04:12.506Z,15.90
2023-02-27T12:06:51.974Z,11.07
2023-02-27T12:09:34.474Z,12.77
2023-02-27T12:12:06.313Z,11.10
2023-02-27T12:15:14.170Z,10.30
2023-02-27T12:17:46.733Z,12.75
2023-02-27T12:21:06.790Z,12.98
2023-02-27T12:24:26.704Z,16.30
2023-02-27T12:27:06.547Z,17.63
2023-02-27T12:29:41.991Z,12.65
2023-02-27T12:32:18.743Z,11.93
2023-02-27T12:34:59.740Z,7.68
2023-02-27T12:37:33.679Z,9.00
2023-02-27T12:40:20.038Z,9.50
2023-02-27T12:43:04.311Z,10.95
2023-02-27T12:45:42.922Z,9.10
2023-02-27T12:48:23.395Z,10.38
2023-02-27T12:51:12.628Z,8.70
2023-02-27T13:00:20.631Z,13.57
2023-02-27T13:03:13.006Z,15.32
2023-02-27T13:05:54.634Z,12.45
2023-02-27T13:08:57.969Z,23.33
2023-02-27T13:12:04.114Z,9.07
2023-02-27T13:14:46.732Z,8.65
2023-02-27T13:17:27.081Z,9.10
2023-02-27T13:20:33.263Z,11.05
2023-02-27T13:23:23.880Z,12.60
2023-02-27T13:25:55.561Z,30.45
2023-02-27T13:28:28.166Z,13.93
2023-02-27T13:31:27.421Z,14.90
2023-02-27T13:34:10.922Z,12.68
2023-02-27T13:36:45.225Z,12.73
2023-02-27T13:39:49.314Z,7.28
2023-02-27T13:42:28.239Z,11.48
2023-02-27T13:44:57.006Z,8.23
2023-02-27T13:47:29.729Z,8.50
2023-02-27T13:50:01.970Z,7.93
2023-02-27T13:52:40.734Z,11.10
2023-02-27T13:55:36.973Z,13.88
2023-02-27T13:58:07.831Z,15.30
2023-02-27T14:00:38.522Z,10.80
2023-02-27T14:03:25.963Z,24.15
2023-02-27T14:05:56.219Z,10.25
2023-02-27T14:08:28.060Z,7.22
2023-02-27T14:11:30.441Z,17.70
2023-02-27T14:14:01.845Z,10.52
2023-02-27T14:16:37.799Z,6.10
2023-02-27T14:19:17.260Z,18.38
2023-02-27T14:21:52.588Z,14.48
2023-02-27T14:24:22.998Z,15.10
2023-02-27T14:26:58.705Z,19.17
2023-02-27T14:29:31.521Z,19.42
2023-02-27T14:32:17.332Z,17.45
2023-02-27T14:34:44.141Z,24.15
2023-02-27T14:37:19.854Z,19.08
2023-02-27T14:39:51.840Z,14.15
2023-02-27T14:42:37.843Z,16.35
2023-02-27T14:45:12.446Z,18.92
2023-02-27T14:47:40.798Z,12.70
2023-02-27T14:50:31.291Z,12.85
2023-02-27T14:53:04.350Z,20.63
2023-02-27T14:55:36.066Z,13.48
2023-02-27T14:58:24.058Z,21.17
2023-02-27T15:01:05.285Z,11.30
2023-02-27T15:03:46.340Z,12.20
2023-02-27T15:06:20.990Z,14.05
2023-02-27T15:08:54.009Z,14.15
2023-02-27T15:11:25.009Z,22.38
2023-02-27T15:13:58.563Z,20.25
2023-02-27T15:16:25.245Z,14.97
2023-02-27T15:19:03.203Z,12.43
2023-02-27T15:21:37.045Z,12.43
2023-02-27T15:24:09.167Z,10.02
2023-02-27T15:26:39.596Z,37.50
2023-02-27T15:29:08.581Z,12.60
2023-02-27T15:31:39.089Z,9.73
2023-02-27T15:34:13.298Z,11.52
2023-02-27T15:36:46.879Z,13.27
2023-02-27T15:39:25.482Z,11.50
2023-02-27T15:41:59.357Z,12.45
2023-02-27T15:44:58.870Z,10.50
2023-02-27T15:47:33.290Z,14.10
2023-02-27T15:53:04.271Z,16.27
2023-02-27T15:55:34.370Z,13.38
2023-02-27T15:58:19.356Z,12.40
2023-02-27T16:00:51.920Z,14.85
2023-02-27T16:03:22.980Z,20.42
2023-02-27T16:05:53.239Z,15.02
2023-02-27T16:08:21.285Z,16.85
2023-02-27T16:10:48.495Z,26.70
2023-02-27T16:13:27.748Z,25.50
2023-02-27T16:16:50.649Z,20.00
2023-02-27T16:19:30.707Z,37.85
2023-02-27T16:22:15.551Z,36.85
2023-02-27T16:27:37.737Z,32.77
2023-02-27T16:30:11.117Z,18.02
2023-02-27T16:32:44.189Z,34.72
2023-02-27T16:35:24.606Z,23.00
2023-02-27T16:37:52.979Z,29.10
2023-02-27T16:40:25.201Z,29.55
2023-02-27T16:42:56.047Z,22.00
2023-02-27T16:45:25.429Z,26.75
2023-02-27T16:47:55.177Z,31.70
2023-02-27T16:50:35.057Z,31.17
2023-02-27T16:53:01.694Z,18.65
2023-02-27T16:55:28.405Z,24.55
2023-02-27T16:57:55.076Z,15.85
2023-02-27T17:00:22.819Z,11.27
2023-02-27T17:02:49.806Z,13.10
2023-02-27T17:05:19.633Z,16.02
2023-02-27T17:07:53.885Z,18.38
2023-02-27T17:10:25.595Z,17.15
2023-02-27T17:12:52.985Z,14.45
2023-02-27T17:15:21.416Z,15.60
2023-02-27T17:17:54.220Z,18.27
2023-02-27T17:20:43.752Z,19.92
2023-02-27T17:23:14.534Z,20.13
2023-02-27T17:25:56.336Z,22.35
2023-02-27T17:28:24.148Z,19.58
2023-02-27T17:30:51.028Z,28.27
2023-02-27T17:33:19.395Z,17.55
2023-02-27T17:35:46.168Z,17.20
2023-02-27T17:38:14.910Z,19.17
2023-02-27T17:40:43.559Z,20.42
2023-02-27T17:43:10.833Z,17.63
2023-02-27T17:45:38.574Z,17.60
2023-02-27T17:48:06.523Z,16.48
2023-02-27T17:50:35.884Z,17.17
2023-02-27T17:53:02.710Z,18.90
2023-02-27T17:55:47.611Z,26.08
2023-02-27T17:58:31.069Z,19.55
2023-02-27T18:01:21.794Z,23.73
2023-02-27T18:03:51.025Z,22.73
2023-02-27T18:06:23.478Z,21.00
2023-02-27T18:08:51.523Z,26.10
2023-02-27T18:11:20.343Z,22.60
2023-02-27T18:13:47.988Z,25.00
2023-02-27T18:16:16.297Z,22.00
2023-02-27T18:18:43.606Z,19.55
2023-02-27T18:21:22.899Z,21.58
2023-02-27T18:23:51.687Z,25.05
2023-02-27T18:26:30.580Z,21.90
2023-02-27T18:29:04.016Z,26.23
2023-02-27T18:31:38.311Z,28.63
2023-02-27T18:34:05.958Z,30.35
2023-02-27T18:36:37.043Z,31.00
2023-02-27T18:39:05.122Z,31.17
2023-02-27T18:41:37.994Z,31.63
2023-02-27T18:44:23.650Z,38.25
2023-02-27T18:46:53.420Z,34.55
2023-02-27T18:49:20.134Z,37.30
2023-02-27T18:51:49.910Z,35.50
2023-02-27T18:54:23.957Z,43.40
2023-02-27T18:57:13.022Z,37.45
2023-02-27T18:59:48.501Z,38.40
2023-02-27T19:05:02.830Z,33.15
2023-02-27T19:07:32.701Z,26.75
2023-02-27T19:10:01.935Z,26.95
2023-02-27T19:12:31.008Z,27.33
2023-02-27T19:15:00.580Z,30.90
2023-02-27T19:17:37.325Z,34.50
2023-02-27T19:20:08.735Z,33.67
2023-02-27T19:22:38.485Z,32.13
2023-02-27T19:25:05.599Z,37.45
2023-02-27T19:27:33.009Z,32.05
2023-02-27T19:30:12.593Z,28.42
2023-02-27T19:32:44.422Z,34.72
2023-02-27T19:35:17.528Z,35.95
2023-02-27T19:37:59.466Z,32.38
2023-02-27T19:40:32.108Z,52.67
2023-02-27T19:43:06.640Z,61.17
2023-02-27T19:45:43.547Z,57.80
2023-02-27T19:48:24.481Z,44.33
2023-02-27T19:50:52.330Z,39.60
2023-02-27T19:53:19.464Z,38.15
2023-02-27T19:55:55.989Z,31.38
2023-02-27T19:58:40.155Z,40.17
2023-02-27T20:01:13.764Z,39.85
2023-02-27T20:03:43.490Z,27.40
2023-02-27T20:06:23.864Z,38.95
2023-02-27T20:08:55.678Z,29.70
2023-02-27T20:11:22.384Z,35.80
2023-02-27T20:13:54.069Z,23.52
2023-02-27T20:16:31.098Z,23.25
2023-02-27T20:19:01.186Z,22.38
2023-02-27T20:21:30.846Z,26.63
2023-02-27T20:23:58.362Z,31.98
2023-02-27T20:26:32.290Z,24.08
2023-02-27T20:29:05.702Z,23.52
2023-02-27T20:31:36.104Z,25.45
2023-02-27T20:34:08.631Z,28.77
2023-02-27T20:36:39.481Z,32.78
2023-02-27T20:39:12.078Z,26.60
2023-02-27T20:41:42.818Z,23.75
2023-02-27T20:44:10.989Z,24.27
2023-02-27T20:46:48.908Z,22.88
2023-02-27T20:49:19.108Z,24.17
2023-02-27T20:51:46.051Z,22.25
2023-02-27T20:54:23.011Z,21.95
2023-02-27T20:56:54.476Z,21.38
2023-02-27T20:59:27.573Z,22.77
2023-02-27T21:01:57.412Z,23.17
2023-02-27T21:04:42.614Z,19.23
2023-02-27T21:07:15.358Z,23.33
2023-02-27T21:09:42.948Z,21.52
2023-02-27T21:12:10.047Z,19.70
2023-02-27T21:14:49.918Z,20.33
2023-02-27T21:17:16.586Z,22.95
2023-02-27T21:19:46.197Z,23.95
2023-02-27T21:22:17.322Z,24.00
2023-02-27T21:24:43.995Z,19.33
2023-02-27T21:27:13.524Z,20.33
2023-02-27T21:29:40.256Z,17.50
2023-02-27T21:32:09.239Z,16.92
2023-02-27T21:35:38.214Z,19.42
2023-02-27T21:38:05.450Z,21.38
2023-02-27T21:40:33.673Z,19.95
2023-02-27T21:43:01.432Z,18.55
2023-02-27T21:45:28.173Z,25.85
2023-02-27T21:48:03.569Z,23.10
2023-02-27T21:50:39.399Z,22.10
2023-02-27T21:53:10.492Z,19.80
2023-02-27T21:55:39.408Z,25.73
2023-02-27T21:58:10.298Z,23.30
2023-02-27T22:00:39.962Z,20.65
2023-02-27T22:03:09.126Z,24.90
2023-02-27T22:05:43.218Z,25.10
2023-02-27T22:08:10.437Z,22.25
2023-02-27T22:10:50.150Z,23.73
2023-02-27T22:13:16.789Z,24.33
2023-02-27T22:15:43.432Z,24.67
2023-02-27T22:18:10.063Z,24.65
2023-02-27T22:20:41.163Z,27.02
2023-02-27T22:23:08.472Z,39.20
2023-02-27T22:25:40.563Z,28.30
2023-02-27T22:28:07.535Z,23.33
2023-02-27T22:30:37.291Z,24.27
2023-02-27T22:33:04.044Z,30.00
2023-02-27T22:35:35.643Z,31.88
2023-02-27T22:38:10.983Z,30.83
2023-02-27T22:40:42.723Z,20.58
2023-02-27T22:43:11.279Z,23.48
2023-02-27T22:45:47.896Z,22.85
2023-02-27T22:48:14.595Z,22.88
2023-02-27T22:50:43.608Z,32.40
2023-02-27T22:53:10.314Z,28.90
2023-02-27T22:55:36.935Z,31.13
2023-02-27T22:58:03.560Z,27.33
2023-02-27T23:00:34.708Z,28.23
2023-02-27T23:03:01.289Z,21.88
2023-02-27T23:05:30.078Z,25.88
2023-02-27T23:07:59.157Z,24.85
2023-02-27T23:10:29.780Z,25.15
2023-02-27T23:12:56.454Z,23.42
2023-02-27T23:15:23.088Z,22.35
2023-02-27T23:17:58.462Z,24.60
2023-02-27T23:20:27.652Z,23.15
2023-02-27T23:22:56.150Z,26.58
2023-02-27T23:25:23.884Z,21.90
2023-02-27T23:27:53.405Z,25.23
2023-02-27T23:30:22.855Z,30.33
2023-02-27T23:32:51.020Z,31.52
2023-02-27T23:35:22.947Z,30.50
2023-02-27T23:37:55.765Z,29.80
2023-02-27T23:40:26.861Z,31.55
2023-02-27T23:43:13.114Z,31.50
2023-02-27T23:45:42.049Z,29.63
2023-02-27T23:48:09.325Z,29.40
2023-02-27T23:50:42.037Z,36.08
2023-02-27T23:53:10.374Z,47.50
2023-02-27T23:55:37.823Z,40.40
2023-02-27T23:58:09.793Z,39.95
